Time;durP1;ratioP1;P1;durP2;ratioP2;P2;SDS_P1;SDS_P2;PMS_P1;PMS_P2;Temp;Humidity;BMP_temperature;BMP_pressure;BME280_temperature;BME280_humidity;BME280_pressure;Samples;Min_cycle;Max_cycle;Signal;HPM_P1;HPM_P2
2022/08/24 00:00:52;;;;;;;23.77;19.63;;;;;;;;;;5074702;28;20047;-65
2022/08/24 00:03:18;;;;;;;26.85;20.60;;;;;;;;;;5075894;28;20036;-65
2022/08/24 00:05:44;;;;;;;24.13;20.83;;;;;;;;;;5093373;28;20035;-65
2022/08/24 00:08:10;;;;;;;23.80;19.58;;;;;;;;;;5092850;28;20028;-65
2022/08/24 00:10:36;;;;;;;24.10;18.42;;;;;;;;;;5093455;28;20044;-65
2022/08/24 00:13:03;;;;;;;27.02;20.48;;;;;;;;;;5075056;28;20044;-65
2022/08/24 00:15:29;;;;;;;26.88;21.02;;;;;;;;;;5092572;28;20066;-65
2022/08/24 00:17:55;;;;;;;30.65;21.58;;;;;;;;;;5075239;28;20088;-65
2022/08/24 00:20:21;;;;;;;24.58;19.58;;;;;;;;;;5093348;28;20047;-65
2022/08/24 00:22:47;;;;;;;26.90;23.20;;;;;;;;;;5092688;28;20404;-65
2022/08/24 00:25:13;;;;;;;26.02;22.13;;;;;;;;;;5093493;28;20567;-65
2022/08/24 00:27:40;;;;;;;30.15;22.60;;;;;;;;;;5092342;28;20497;-65
2022/08/24 00:30:08;;;;;;;31.75;24.15;;;;;;;;;;5093300;28;20047;-65
2022/08/24 00:32:36;;;;;;;28.33;24.08;;;;;;;;;;5093175;28;20039;-65
2022/08/24 00:35:04;;;;;;;27.35;22.77;;;18.50;99.90;;;;;;5073966;28;20048;-65
2022/08/24 00:37:30;;;;;;;30.38;24.25;;;;;;;;;;5092761;28;20513;-65
2022/08/24 00:39:56;;;;;;;27.05;22.98;;;;;;;;;;5092853;28;20592;-65
2022/08/24 00:42:24;;;;;;;26.65;21.95;;;18.50;99.90;;;;;;5092176;28;20400;-65
2022/08/24 00:44:50;;;;;;;26.48;22.27;;;;;;;;;;5093003;28;20046;-65
2022/08/24 00:47:22;;;;;;;25.58;21.88;;;18.40;99.90;;;;;;5093080;28;20109;-65
2022/08/24 00:49:55;;;;;;;24.88;21.10;;;;;;;;;;5073679;28;20038;-65
2022/08/24 00:52:24;;;;;;;26.92;21.20;;;;;;;;;;5074782;28;20571;-65
2022/08/24 00:54:56;;;;;;;25.55;22.45;;;18.30;99.90;;;;;;5074721;28;20047;-65
2022/08/24 00:57:26;;;;;;;26.52;21.05;;;;;;;;;;5073866;28;20047;-65
2022/08/24 00:59:55;;;;;;;30.98;22.17;;;;;;;;;;5092553;28;20044;-65
2022/08/24 01:02:24;;;;;;;28.30;22.38;;;;;;;;;;5074793;28;20493;-65
2022/08/24 01:05:01;;;;;;;26.40;20.65;;;;;;;;;;5091999;28;20076;-65
2022/08/24 01:07:29;;;;;;;21.77;19.33;;;;;;;;;;5092541;28;20097;-65
2022/08/24 01:09:57;;;;;;;26.65;19.95;;;;;;;;;;5091707;28;20102;-65
2022/08/24 01:12:24;;;;;;;26.98;21.13;;;;;;;;;;5092574;28;20079;-65
2022/08/24 01:14:50;;;;;;;23.85;19.35;;;;;;;;;;5074464;28;20588;-65
2022/08/24 01:20:09;;;;;;;24.77;19.92;;;;;;;;;;5043628;28;20063;-65
2022/08/24 01:22:48;;;;;;;24.67;20.98;;;;;;;;;;5074215;28;20104;-65
2022/08/24 01:25:14;;;;;;;27.90;22.25;;;;;;;;;;5073174;28;20068;-65
2022/08/24 01:27:41;;;;;;;23.48;19.67;;;18.20;99.90;;;;;;5074214;28;20044;-65
2022/08/24 01:30:09;;;;;;;30.50;20.73;;;;;;;;;;5092207;28;20119;-65
2022/08/24 01:32:35;;;;;;;25.92;20.50;;;;;;;;;;5073316;28;20047;-65
2022/08/24 01:35:01;;;;;;;26.52;20.90;;;;;;;;;;5074185;28;20043;-65
2022/08/24 01:37:28;;;;;;;22.88;19.25;;;18.20;99.90;;;;;;5092267;28;20392;-65
2022/08/24 01:39:55;;;;;;;23.10;19.05;;;;;;;;;;5073250;28;20047;-65
2022/08/24 01:42:22;;;;;;;26.85;19.77;;;;;;;;;;5074170;28;20040;-65
2022/08/24 01:44:48;;;;;;;27.20;23.05;;;;;;;;;;5091509;28;20051;-65
2022/08/24 01:47:15;;;;;;;25.38;20.65;;;;;;;;;;5074170;28;20075;-65
2022/08/24 01:49:42;;;;;;;27.92;22.83;;;;;;;;;;5073924;28;20044;-65
2022/08/24 01:52:11;;;;;;;29.67;23.55;;;;;;;;;;5073657;28;20043;-65
2022/08/24 01:54:37;;;;;;;28.65;23.42;;;;;;;;;;5091844;28;20051;-65
2022/08/24 01:57:04;;;;;;;26.88;20.95;;;;;;;;;;5073887;28;20055;-65
2022/08/24 01:59:30;;;;;;;26.00;21.65;;;;;;;;;;5073186;28;20511;-65
2022/08/24 02:01:57;;;;;;;25.80;21.73;;;;;;;;;;5057145;28;20522;-65
2022/08/24 02:04:23;;;;;;;28.90;22.08;;;;;;;;;;5073834;28;20081;-65
2022/08/24 02:06:49;;;;;;;26.67;22.35;;;;;;;;;;5090990;28;20036;-65
2022/08/24 02:09:16;;;;;;;25.15;21.20;;;;;;;;;;5092019;28;20036;-65
2022/08/24 02:11:42;;;;;;;29.00;24.20;;;;;;;;;;5073937;28;20344;-65
2022/08/24 02:14:08;;;;;;;25.02;22.10;;;;;;;;;;5056421;28;20131;-65
2022/08/24 02:16:34;;;;;;;29.65;23.48;;;;;;;;;;5091741;28;20490;-65
2022/08/24 02:19:00;;;;;;;28.42;22.98;;;;;;;;;;5091617;28;20558;-65
2022/08/24 02:21:26;;;;;;;28.27;23.10;;;;;;;;;;5090678;28;20063;-65
2022/08/24 02:23:52;;;;;;;28.55;22.67;;;;;;;;;;5091364;28;20059;-65
2022/08/24 02:26:19;;;;;;;29.35;24.17;;;;;;;;;;5057485;28;20436;-65
2022/08/24 02:28:45;;;;;;;31.33;23.90;;;;;;;;;;5072431;28;20122;-65
2022/08/24 02:31:12;;;;;;;30.15;23.77;;;;;;;;;;5073725;28;20036;-65
2022/08/24 02:33:39;;;;;;;29.02;22.77;;;;;;;;;;5073485;28;20123;-65
2022/08/24 02:36:06;;;;;;;30.65;25.13;;;;;;;;;;5092823;28;20473;-65
2022/08/24 02:38:32;;;;;;;25.33;20.13;;;;;;;;;;5077129;28;20039;-65
2022/08/24 02:40:58;;;;;;;29.48;23.08;;;;;;;;;;5095462;28;20097;-65
2022/08/24 02:43:24;;;;;;;27.55;22.90;;;;;;;;;;5076262;28;20044;-65
2022/08/24 02:45:51;;;;;;;26.65;23.25;;;;;;;;;;5076741;28;20119;-65
2022/08/24 02:48:17;;;;;;;28.60;22.40;;;;;;;;;;5094648;28;20040;-65
2022/08/24 02:50:45;;;;;;;26.73;22.55;;;;;;;;;;5094945;28;20036;-65
2022/08/24 02:53:12;;;;;;;27.77;22.75;;;;;;;;;;5077295;28;20083;-65
2022/08/24 02:55:40;;;;;;;27.95;23.42;;;;;;;;;;5094534;28;20400;-65
2022/08/24 02:58:06;;;;;;;25.63;21.40;;;;;;;;;;5077095;28;20052;-65
2022/08/24 03:00:32;;;;;;;26.17;22.73;;;;;;;;;;5059843;28;20127;-65
2022/08/24 03:03:00;;;;;;;25.63;22.13;;;;;;;;;;5075850;28;20036;-65
2022/08/24 03:05:26;;;;;;;29.60;23.45;;;;;;;;;;5076873;28;20109;-65
2022/08/24 03:07:52;;;;;;;29.27;23.83;;;;;;;;;;5094725;28;20055;-65
2022/08/24 03:10:18;;;;;;;27.67;23.23;;;;;;;;;;5094284;28;20039;-65
2022/08/24 03:12:44;;;;;;;28.65;22.13;;;;;;;;;;5094424;28;20080;-65
2022/08/24 03:15:11;;;;;;;26.83;21.83;;;;;;;;;;5076813;28;20083;-65
2022/08/24 03:17:37;;;;;;;31.10;23.20;;;;;;;;;;5093818;28;20396;-65
2022/08/24 03:20:05;;;;;;;26.30;20.27;;;;;;;;;;5076364;28;20090;-65
2022/08/24 03:22:32;;;;;;;32.25;22.13;;;;;;;;;;5076214;28;20040;-65
2022/08/24 03:24:58;;;;;;;27.05;21.73;;;;;;;;;;5075774;28;20053;-65
2022/08/24 03:27:24;;;;;;;26.08;21.00;;;;;;;;;;5076256;28;20485;-65
2022/08/24 03:29:50;;;;;;;26.17;21.77;;;;;;;;;;5094291;28;20036;-65
2022/08/24 03:32:16;;;;;;;28.23;22.90;;;;;;;;;;5093825;28;20044;-65
2022/08/24 03:34:42;;;;;;;27.88;23.45;;;;;;;;;;5093997;28;20500;-68
2022/08/24 03:37:08;;;;;;;26.90;21.75;;;;;;;;;;5059696;28;20074;-68
2022/08/24 03:39:34;;;;;;;24.60;21.85;;;;;;;;;;5093517;28;20477;-68
2022/08/24 03:42:00;;;;;;;27.08;23.02;;;;;;;;;;5094186;28;20047;-68
2022/08/24 03:44:26;;;;;;;30.88;24.60;;;;;;;;;;5075172;28;20396;-67
2022/08/24 03:46:53;;;;;;;27.70;23.02;;;;;;;;;;5093473;28;20032;-68
2022/08/24 03:49:20;;;;;;;25.90;21.38;;;;;;;;;;5076162;28;20047;-68
2022/08/24 03:51:46;;;;;;;27.63;23.30;;;;;;;;;;5093112;28;20082;-68
2022/08/24 03:54:12;;;;;;;28.85;23.90;;;;;;;;;;5076067;28;20075;-68
2022/08/24 03:56:38;;;;;;;26.20;23.13;;;;;;;;;;5093964;28;20047;-68
2022/08/24 03:59:06;;;;;;;28.83;22.42;;;;;;;;;;5074743;28;20580;-68
2022/08/24 04:01:32;;;;;;;29.70;24.23;;;;;;;;;;5093796;28;20503;-68
2022/08/24 04:03:58;;;;;;;30.35;24.25;;;;;;;;;;5075467;28;20044;-68
2022/08/24 04:06:24;;;;;;;26.98;21.80;;;;;;;;;;5074795;28;20044;-66
2022/08/24 04:08:51;;;;;;;29.13;22.23;;;;;;;;;;5093684;28;20458;-65
2022/08/24 04:11:19;;;;;;;30.08;26.85;;;;;;;;;;5093868;28;20047;-65
2022/08/24 04:13:46;;;;;;;29.83;24.38;;;;;;;;;;5092284;28;20083;-65
2022/08/24 04:16:14;;;;;;;29.20;23.60;;;;;;;;;;5093766;28;20062;-65
2022/08/24 04:18:40;;;;;;;30.27;23.17;;;;;;;;;;5093232;28;20054;-65
2022/08/24 04:21:14;;;;;;;28.00;22.48;;;;;;;;;;5074236;28;20488;-65
2022/08/24 04:23:41;;;;;;;32.45;25.00;;;;;;;;;;5093356;28;20458;-68
2022/08/24 04:26:07;;;;;;;27.40;21.13;;;;;;;;;;5075094;28;20075;-68
2022/08/24 04:28:33;;;;;;;26.50;23.23;;;;;;;;;;5092364;28;20040;-68
2022/08/24 04:30:59;;;;;;;28.02;21.38;;;;;;;;;;5093047;28;20043;-68
2022/08/24 04:33:25;;;;;;;29.02;20.35;;;;;;;;;;5075228;28;20123;-68
2022/08/24 04:35:51;;;;;;;26.45;22.38;;;;;;;;;;5092252;28;20561;-68
2022/08/24 04:38:19;;;;;;;22.65;19.15;;;;;;;;;;5093489;28;20044;-68
2022/08/24 04:40:47;;;;;;;25.05;19.05;;;;;;;;;;5073838;28;20039;-68
2022/08/24 04:43:14;;;;;;;26.42;20.77;;;;;;;;;;5074902;28;20055;-67
2022/08/24 04:45:42;;;;;;;21.85;17.85;;;;;;;;;;5092666;28;20040;-67
2022/08/24 04:48:08;;;;;;;26.15;23.25;;;;;;;;;;5073925;28;20035;-67
2022/08/24 04:50:35;;;;;;;23.63;19.38;;;;;;;;;;5074659;28;20044;-67
2022/08/24 04:53:04;;;;;;;26.42;21.85;;;;;;;;;;5092768;28;20050;-67
2022/08/24 04:55:30;;;;;;;28.88;23.67;;;;;;;;;;5073938;28;20054;-68
2022/08/24 04:57:56;;;;;;;25.98;21.83;;;;;;;;;;5074250;28;20054;-67
2022/08/24 05:00:22;;;;;;;24.25;21.63;;;;;;;;;;5057414;28;20136;-68
2022/08/24 05:02:48;;;;;;;21.88;19.52;;;;;;;;;;5091765;28;20123;-67
2022/08/24 05:05:15;;;;;;;25.70;22.33;;;;;;;;;;5075237;28;20481;-68
2022/08/24 05:07:41;;;;;;;25.73;22.98;;;;;;;;;;5074327;28;20043;-67
2022/08/24 05:10:08;;;;;;;25.23;20.25;;;;;;;;;;5073667;28;20618;-67
2022/08/24 05:12:34;;;;;;;23.23;20.63;;;;;;;;;;5073950;28;20054;-65
2022/08/24 05:15:00;;;;;;;28.92;22.58;;;;;;;;;;5074462;28;20040;-65
2022/08/24 05:17:27;;;;;;;27.27;22.80;;;;;;;;;;5073592;28;20047;-64
2022/08/24 05:19:53;;;;;;;26.63;22.67;;;;;;;;;;5074266;28;20056;-65
2022/08/24 05:22:20;;;;;;;25.83;21.75;;;;;;;;;;5092547;28;20130;-65
2022/08/24 05:24:46;;;;;;;27.67;23.63;;;;;;;;;;5091221;28;20044;-65
2022/08/24 05:27:12;;;;;;;25.60;22.90;;;;;;;;;;5074286;28;20044;-65
2022/08/24 05:29:38;;;;;;;24.75;20.77;;;;;;;;;;5092435;28;20047;-65
2022/08/24 05:32:04;;;;;;;26.98;24.02;;;;;;;;;;5091526;28;20039;-65
2022/08/24 05:34:30;;;;;;;33.33;27.25;;;;;;;;;;5092289;28;20456;-65
2022/08/24 05:36:56;;;;;;;29.88;25.85;;;;;;;;;;5091196;28;20481;-65
2022/08/24 05:39:22;;;;;;;30.83;25.48;;;;;;;;;;5073986;28;20485;-65
2022/08/24 05:41:48;;;;;;;28.52;25.42;;;;;;;;;;5057094;28;20519;-65
2022/08/24 05:44:15;;;;;;;33.42;27.92;;;;;;;;;;5091607;28;20834;-65
2022/08/24 05:46:42;;;;;;;31.77;28.40;;;;;;;;;;5073992;28;20040;-65
2022/08/24 05:49:08;;;;;;;35.30;28.48;;;;;;;;;;5073962;28;20484;-65
2022/08/24 05:51:35;;;;;;;33.92;28.23;;;;;;;;;;5091260;28;20036;-65
2022/08/24 05:54:03;;;;;;;37.28;30.80;;;;;;;;;;5073767;28;20044;-65
2022/08/24 05:56:29;;;;;;;34.28;29.42;;;;;;;;;;5073740;28;20048;-65
2022/08/24 05:58:55;;;;;;;34.03;29.67;;;;;;;;;;5091277;28;20055;-65
2022/08/24 06:01:22;;;;;;;31.70;26.85;;;;;;;;;;5092326;28;20046;-65
2022/08/24 06:03:49;;;;;;;31.60;27.45;;;;;;;;;;5073611;28;20072;-65
2022/08/24 06:06:16;;;;;;;35.10;29.20;;;;;;;;;;5091199;28;20043;-65
2022/08/24 06:08:45;;;;;;;44.85;34.30;;;;;;;;;;5091667;28;20164;-65
2022/08/24 06:11:18;;;;;;;36.22;29.75;;;19.00;99.90;;;;;;5076414;28;20160;-65
2022/08/24 06:13:43;;;;;;;32.03;27.23;;;19.00;99.90;;;;;;5076654;28;20054;-65
2022/08/24 06:16:12;;;;;;;33.63;28.77;;;19.00;99.90;;;;;;5078169;28;20044;-65
2022/08/24 06:18:38;;;;;;;37.10;32.28;;;;;;;;;;5095796;28;20040;-65
2022/08/24 06:21:07;;;;;;;34.33;28.00;;;19.20;99.90;;;;;;5076706;28;20079;-65
2022/08/24 06:23:34;;;;;;;31.60;28.25;;;19.10;99.90;;;;;;5077354;28;20055;-65
2022/08/24 06:28:45;;;;;;;35.85;30.50;;;;;;;;;;5077328;28;20040;-65
2022/08/24 06:31:11;;;;;;;30.45;27.13;;;;;;;;;;5077588;28;20559;-65
2022/08/24 06:33:37;;;;;;;28.50;25.13;;;;;;;;;;5094627;28;20550;-65
2022/08/24 06:36:03;;;;;;;28.35;24.38;;;;;;;;;;5095323;28;20043;-65
2022/08/24 06:38:30;;;;;;;27.85;24.15;;;;;;;;;;5095304;28;20097;-65
2022/08/24 06:40:55;;;;;;;27.98;22.92;;;19.80;99.90;;;;;;5094545;28;20044;-65
2022/08/24 06:43:23;;;;;;;27.05;22.30;;;;;;;;;;5077412;28;20127;-65
2022/08/24 06:45:49;;;;;;;28.30;22.88;;;;;;;;;;5095270;28;20044;-65
2022/08/24 06:48:16;;;;;;;30.75;22.15;;;;;;;;;;5094770;28;20039;-65
2022/08/24 06:50:41;;;;;;;28.00;22.25;;;20.10;99.90;;;;;;5094954;28;20040;-65
2022/08/24 06:53:08;;;;;;;27.85;23.42;;;20.20;99.90;;;;;;5077192;28;20089;-65
2022/08/24 06:55:33;;;;;;;25.55;22.95;;;20.50;99.90;;;;;;5091864;28;20043;-65
2022/08/24 06:57:59;;;;;;;27.45;21.52;;;20.40;99.90;;;;;;5094825;28;20511;-65
2022/08/24 07:00:25;;;;;;;25.25;20.70;;;;;;;;;;5091385;28;20051;-65
2022/08/24 07:02:51;;;;;;;26.05;20.90;;;;;;;;;;5089418;28;20081;-65
2022/08/24 07:05:17;;;;;;;26.77;22.13;;;20.60;99.90;;;;;;5073775;28;20136;-65
2022/08/24 07:07:43;;;;;;;31.52;20.55;;;;;;;;;;5087630;28;20626;-65
2022/08/24 07:10:10;;;;;;;27.92;20.38;;;;;;;;;;5071396;28;20047;-65
2022/08/24 07:12:36;;;;;;;24.35;19.67;;;;;;;;;;5063595;28;20501;-64
2022/08/24 07:15:05;;;;;;;28.27;20.55;;;;;;;;;;5045471;28;20182;-65
2022/08/24 07:17:31;;;;;;;30.08;20.45;;;;;;;;;;5056193;28;20043;-67
2022/08/24 07:19:57;;;;;;;24.15;19.05;;;21.60;99.90;;;;;;5091075;28;20060;-65
2022/08/24 07:22:23;;;;;;;22.77;19.10;;;;;;;;;;5055052;28;20055;-65
2022/08/24 07:24:49;;;;;;;22.55;18.15;;;;;;;;;;5073257;28;20042;-65
2022/08/24 07:27:15;;;;;;;25.92;18.73;;;;;;;;;;5092044;28;20141;-65
2022/08/24 07:29:41;;;;;;;21.85;18.67;;;21.70;99.90;;;;;;5082013;28;20493;-65
2022/08/24 07:32:09;;;;;;;21.88;18.27;;;21.70;99.90;;;;;;5084054;28;20204;-66
2022/08/24 07:34:36;;;;;;;24.92;19.02;;;;;;;;;;5066155;28;20779;-65
2022/08/24 07:37:02;;;;;;;26.10;18.98;;;;;;;;;;5066000;28;20115;-67
2022/08/24 07:39:29;;;;;;;26.15;17.30;;;;;;;;;;5065430;28;20049;-65
2022/08/24 07:41:56;;;;;;;21.27;17.75;;;;;;;;;;5087777;28;20572;-64
2022/08/24 07:44:22;;;;;;;20.90;17.08;;;;;;;;;;5072070;28;20167;-66
2022/08/24 07:46:48;;;;;;;26.50;17.27;;;;;;;;;;5067976;28;20048;-65
2022/08/24 07:49:14;;;;;;;17.88;15.98;;;22.50;99.90;;;;;;5067214;28;20045;-65
2022/08/24 07:51:40;;;;;;;18.63;16.63;;;;;;;;;;5062830;28;20055;-66
2022/08/24 07:54:07;;;;;;;19.83;15.38;;;22.40;99.90;;;;;;5086253;28;20071;-67
2022/08/24 07:56:33;;;;;;;20.73;14.63;;;;;;;;;;5090813;28;20047;-67
2022/08/24 07:58:59;;;;;;;16.23;14.50;;;;;;;;;;5066163;28;20039;-67
2022/08/24 08:01:26;;;;;;;16.25;14.20;;;;;;;;;;5078300;28;20058;-67
2022/08/24 08:03:52;;;;;;;15.63;13.27;;;;;;;;;;5078547;28;20063;-67
2022/08/24 08:06:18;;;;;;;15.77;12.75;;;22.70;99.90;;;;;;5071563;28;20040;-67
2022/08/24 08:08:44;;;;;;;14.98;12.40;;;22.80;99.90;;;;;;5069245;28;20177;-67
2022/08/24 08:11:12;;;;;;;15.80;13.27;;;;;;;;;;5070255;28;20036;-67
2022/08/24 08:13:38;;;;;;;14.60;12.85;;;;;;;;;;5067202;28;20056;-67
2022/08/24 08:16:05;;;;;;;16.33;12.88;;;;;;;;;;5061125;28;20043;-66
2022/08/24 08:18:31;;;;;;;12.85;11.02;;;;;;;;;;5072283;28;20051;-66
2022/08/24 08:20:57;;;;;;;17.17;11.35;;;;;;;;;;5081589;28;20060;-63
2022/08/24 08:26:08;;;;;;;;;;;;;;;;;;5069400;28;20220;-64
2022/08/24 08:28:34;;;;;;;14.48;10.95;;;;;;;;;;5065163;28;19965;-65
2022/08/24 08:31:00;;;;;;;16.90;11.45;;;;;;;;;;5046741;28;20040;-64
2022/08/24 08:33:26;;;;;;;15.02;11.18;;;;;;;;;;5070029;28;20044;-65
2022/08/24 08:35:56;;;;;;;14.20;10.15;;;;;;;;;;5093071;28;20035;-65
2022/08/24 08:38:22;;;;;;;12.15;9.18;;;;;;;;;;5060306;28;20040;-64
2022/08/24 08:41:03;;;;;;;15.43;9.15;;;;;;;;;;5067844;28;20051;-64
2022/08/24 08:43:37;;;;;;;11.05;7.38;;;23.90;99.90;;;;;;5077201;28;20079;-61
2022/08/24 08:46:12;;;;;;;10.95;8.20;;;;;;;;;;5069552;28;20093;-61
2022/08/24 08:48:53;;;;;;;11.50;8.55;;;23.90;99.90;;;;;;5070569;28;20036;-61
2022/08/24 08:51:50;;;;;;;12.23;9.40;;;24.00;99.90;;;;;;5055144;28;20036;-60
2022/08/24 08:54:29;;;;;;;11.50;8.02;;;24.10;99.90;;;;;;5091020;28;20443;-61
2022/08/24 08:57:14;;;;;;;10.48;7.25;;;;;;;;;;5073991;28;20044;-61
2022/08/24 09:00:00;;;;;;;9.73;6.53;;;24.40;99.90;;;;;;5088370;28;20088;-61
2022/08/24 09:02:26;;;;;;;15.27;8.48;;;;;;;;;;5047228;28;20505;-61
2022/08/24 09:04:57;;;;;;;11.25;7.43;;;24.40;99.90;;;;;;5045544;28;20165;-64
2022/08/24 09:07:38;;;;;;;10.48;6.97;;;24.40;99.90;;;;;;5071962;28;20036;-63
2022/08/24 09:10:15;;;;;;;11.63;7.63;;;24.40;99.90;;;;;;5091176;28;20409;-64
2022/08/24 09:13:08;;;;;;;10.35;7.45;;;24.60;99.90;;;;;;5064323;28;20724;-62
2022/08/24 09:15:46;;;;;;;12.75;8.88;;;24.50;99.90;;;;;;5078527;28;20036;-62
2022/08/24 09:18:19;;;;;;;11.18;7.70;;;24.70;99.90;;;;;;5073244;28;20043;-62
2022/08/24 09:20:50;;;;;;;11.13;8.43;;;;;;;;;;5089535;28;20057;-62
2022/08/24 09:23:16;;;;;;;10.65;7.68;;;;;;;;;;5086305;28;20044;-62
2022/08/24 09:25:50;;;;;;;11.48;8.02;;;;;;;;;;5091589;28;20523;-62
2022/08/24 09:28:19;;;;;;;11.10;7.63;;;;;;;;;;5073987;28;20044;-62
2022/08/24 09:31:04;;;;;;;10.77;7.50;;;;;;;;;;5087203;28;20115;-62
2022/08/24 09:33:40;;;;;;;10.02;7.07;;;25.10;99.90;;;;;;5075820;28;20041;-62
2022/08/24 09:36:07;;;;;;;9.75;7.03;;;24.70;99.90;;;;;;5053328;28;20048;-61
2022/08/24 09:39:05;;;;;;;10.20;6.63;;;25.10;99.90;;;;;;5087889;28;20044;-62
2022/08/24 09:41:56;;;;;;;9.82;6.35;;;25.10;99.90;;;;;;5065569;28;20094;-64
2022/08/24 09:44:30;;;;;;;9.68;6.00;;;25.30;99.90;;;;;;5089648;28;20047;-64
2022/08/24 09:47:20;;;;;;;;;;;25.20;99.90;;;;;;5090481;28;20044;-64
2022/08/24 09:50:14;;;;;;;10.32;7.60;;;25.30;99.90;;;;;;5072866;28;20300;-65
2022/08/24 09:53:13;;;;;;;7.05;5.30;;;25.40;99.90;;;;;;5069240;28;20044;-64
2022/08/24 09:55:54;;;;;;;10.10;4.93;;;25.40;99.90;;;;;;5074181;28;20059;-64
2022/08/24 09:58:32;;;;;;;10.98;5.90;;;25.50;99.90;;;;;;5076030;28;20079;-64
2022/08/24 10:01:21;;;;;;;7.93;5.60;;;25.60;99.90;;;;;;5080365;28;20045;-64
2022/08/24 10:03:59;;;;;;;8.45;5.18;;;25.60;99.90;;;;;;5053703;28;20140;-65
2022/08/24 10:06:47;;;;;;;7.97;4.97;;;25.40;99.90;;;;;;5053517;28;20044;-64
2022/08/24 10:09:40;;;;;;;7.97;5.57;;;25.70;99.90;;;;;;5082806;28;20118;-66
2022/08/24 10:12:30;;;;;;;7.72;4.93;;;25.70;99.90;;;;;;5068048;28;20055;-63
2022/08/24 10:15:07;;;;;;;8.60;4.80;;;25.80;99.90;;;;;;5067087;28;20093;-64
2022/08/24 10:18:02;;;;;;;6.68;4.57;;;25.80;99.90;;;;;;5088887;28;20071;-64
2022/08/24 10:20:53;;;;;;;7.20;5.03;;;25.90;99.90;;;;;;5062587;28;20079;-64
2022/08/24 10:23:46;;;;;;;9.73;5.75;;;26.20;99.90;;;;;;5055185;28;20684;-63
2022/08/24 10:26:24;;;;;;;6.72;4.95;;;25.50;99.90;;;;;;5054146;28;20125;-62
2022/08/24 10:29:06;;;;;;;7.45;3.95;;;25.90;99.90;;;;;;5089184;28;20595;-63
2022/08/24 10:31:46;;;;;;;7.40;5.55;;;26.10;99.90;;;;;;5080170;28;20537;-63
2022/08/24 10:34:26;;;;;;;7.97;4.30;;;26.00;99.90;;;;;;5072098;28;20045;-63
2022/08/24 10:37:00;;;;;;;7.13;3.95;;;27.40;99.90;;;;;;5066860;28;20473;-62
2022/08/24 10:39:48;;;;;;;6.28;3.97;;;26.10;99.90;;;;;;5075329;28;20047;-62
2022/08/24 10:45:45;;;;;;;7.43;4.47;;;26.30;99.90;;;;;;5072397;28;20032;-63
2022/08/24 10:48:23;;;;;;;7.72;4.47;;;;;;;;;;5065507;28;20090;-63
2022/08/24 10:50:49;;;;;;;7.55;3.95;;;;;;;;;;5091021;28;20040;-63
2022/08/24 10:53:24;;;;;;;8.10;3.47;;;26.30;99.90;;;;;;5070405;28;20087;-63
2022/08/24 10:55:57;;;;;;;11.00;4.78;;;;;;;;;;5071359;28;20044;-63
2022/08/24 10:58:23;;;;;;;8.05;4.65;;;;;;;;;;5083918;28;20036;-61
2022/08/24 11:00:49;;;;;;;8.35;4.65;;;;;;;;;;5070539;28;20028;-62
2022/08/24 11:03:20;;;;;;;5.97;3.17;;;;;;;;;;5079312;28;20485;-62
2022/08/24 11:05:51;;;;;;;9.25;4.97;;;;;;;;;;5067530;28;20556;-62
2022/08/24 11:08:33;;;;;;;7.10;4.30;;;;;;;;;;5093938;28;20068;-62
2022/08/24 11:11:10;;;;;;;7.22;3.97;;;;;;;;;;5086005;28;20040;-63
2022/08/24 11:13:37;;;;;;;8.60;4.43;;;;;;;;;;5076386;28;20540;-63
2022/08/24 11:16:04;;;;;;;6.43;2.50;;;;;;;;;;5073862;28;20040;-63
2022/08/24 11:18:46;;;;;;;4.82;2.47;;;;;;;;;;5090513;28;20040;-63
2022/08/24 11:21:19;;;;;;;5.53;3.10;;;;;;;;;;5094335;28;20412;-63
2022/08/24 11:23:45;;;;;;;7.57;2.70;;;;;;;;;;5085768;28;20540;-63
2022/08/24 11:26:18;;;;;;;5.75;2.88;;;;;;;;;;5067987;28;20048;-63
2022/08/24 11:28:46;;;;;;;5.90;3.00;;;;;;;;;;5075089;28;20043;-63
2022/08/24 11:31:19;;;;;;;5.80;2.80;;;;;;;;;;5094133;28;20032;-64
2022/08/24 11:33:46;;;;;;;4.65;2.78;;;;;;;;;;5086030;28;20093;-63
2022/08/24 11:36:17;;;;;;;7.85;3.10;;;;;;;;;;5056456;28;20049;-63
2022/08/24 11:38:43;;;;;;;5.93;3.92;;;;;;;;;;5074069;28;20041;-63
2022/08/24 11:41:13;;;;;;;4.95;3.33;;;;;;;;;;5052650;28;20139;-65
2022/08/24 11:43:58;;;;;;;5.80;2.90;;;;;;;;;;5068042;28;20143;-65
2022/08/24 11:46:45;;;;;;;4.95;3.20;;;;;;;;;;5059341;28;20385;-63
2022/08/24 11:49:27;;;;;;;5.35;3.58;;;27.00;99.90;;;;;;5078800;28;20164;-63
2022/08/24 11:52:09;;;;;;;7.13;2.72;;;27.10;99.90;;;;;;5072943;28;20048;-63
2022/08/24 11:54:38;;;;;;;5.57;2.40;;;;;;;;;;5078711;28;20101;-63
2022/08/24 11:57:04;;;;;;;4.93;2.28;;;;;;;;;;5065911;28;20047;-64
2022/08/24 11:59:42;;;;;;;6.95;2.85;;;;;;;;;;5075925;28;20039;-64
2022/08/24 12:02:13;;;;;;;4.88;2.30;;;;;;;;;;5072520;28;20083;-64
2022/08/24 12:04:44;;;;;;;4.38;2.10;;;;;;;;;;5055109;28;20045;-64
2022/08/24 12:07:29;;;;;;;4.75;1.95;;;;;;;;;;5055683;28;20036;-64
2022/08/24 12:10:01;;;;;;;6.32;2.58;;;;;;;;;;5064710;28;20032;-64
2022/08/24 12:12:35;;;;;;;4.13;2.00;;;27.60;99.90;;;;;;5045483;28;20374;-64
2022/08/24 12:15:22;;;;;;;6.00;2.20;;;27.40;99.90;;;;;;5061958;28;20040;-64
2022/08/24 12:18:27;;;;;;;12.10;2.42;;;27.40;99.90;;;;;;5073774;28;20113;-64
2022/08/24 12:20:55;;;;;;;4.10;1.55;;;27.70;99.90;;;;;;5069434;28;20055;-64
2022/08/24 12:23:57;;;;;;;3.33;1.63;;;27.60;99.90;;;;;;5066667;28;20375;-64
2022/08/24 12:26:24;;;;;;;5.90;2.03;;;;;;;;;;5067831;28;20032;-65
2022/08/24 12:28:54;;;;;;;11.07;2.08;;;27.50;99.90;;;;;;5052144;28;20162;-64
2022/08/24 12:31:30;;;;;;;7.45;2.30;;;27.90;99.90;;;;;;5053909;28;20087;-65
2022/08/24 12:34:00;;;;;;;2.83;1.40;;;27.70;99.90;;;;;;5063140;28;20049;-65
2022/08/24 12:36:32;;;;;;;3.47;1.00;;;27.70;99.90;;;;;;5071648;28;20086;-65
2022/08/24 12:39:18;;;;;;;2.85;1.48;;;27.70;99.90;;;;;;5071903;28;20094;-65
2022/08/24 12:41:55;;;;;;;2.65;1.00;;;27.80;99.90;;;;;;5069881;28;20041;-64
2022/08/24 12:44:24;;;;;;;2.45;1.02;;;;;;;;;;5035404;28;20037;-63
2022/08/24 12:46:54;;;;;;;2.55;1.17;;;;;;;;;;5050746;28;20052;-64
2022/08/24 12:49:30;;;;;;;2.47;1.15;;;;;;;;;;5062220;28;20060;-63
2022/08/24 12:52:16;;;;;;;2.83;1.08;;;;;;;;;;5071702;28;20408;-64
2022/08/24 12:54:58;;;;;;;4.43;1.38;;;;;;;;;;5065603;28;20048;-64
2022/08/24 12:57:43;;;;;;;1.90;0.85;;;;;;;;;;5056793;28;20048;-66
2022/08/24 13:00:19;;;;;;;2.15;0.82;;;;;;;;;;5057087;28;20532;-66
2022/08/24 13:02:59;;;;;;;1.90;0.70;;;28.20;99.90;;;;;;5064705;28;20401;-66
2022/08/24 13:05:44;;;;;;;2.42;1.10;;;28.20;97.10;;;;;;5061235;28;20041;-64
2022/08/24 13:08:35;;;;;;;2.60;1.10;;;28.20;97.40;;;;;;5042248;28;20127;-64
2022/08/24 13:11:10;;;;;;;2.97;1.10;;;;;;;;;;5069709;28;20047;-64
2022/08/24 13:13:40;;;;;;;3.25;1.30;;;;;;;;;;5068248;28;20485;-64
2022/08/24 13:16:06;;;;;;;1.83;1.02;;;28.40;97.40;;;;;;5068488;28;20489;-64
2022/08/24 13:19:11;;;;;;;5.72;1.00;;;28.40;97.10;;;;;;5047834;28;20043;-65
2022/08/24 13:21:41;;;;;;;1.85;0.80;;;28.40;99.90;;;;;;5050420;28;20457;-65
2022/08/24 13:24:44;;;;;;;3.90;1.15;;;28.70;99.90;;;;;;5059843;28;20059;-64
2022/08/24 13:27:14;;;;;;;1.52;0.82;;;28.50;95.70;;;;;;5057413;28;20048;-66
2022/08/24 13:30:20;;;;;;;3.33;0.80;;;28.40;96.50;;;;;;5052543;28;20088;-65
2022/08/24 13:32:55;;;;;;;2.63;1.05;;;28.70;99.90;;;;;;5018114;28;20503;-66
2022/08/24 13:35:39;;;;;;;2.08;0.95;;;28.40;96.70;;;;;;5053580;28;20051;-67
2022/08/24 13:38:23;;;;;;;1.65;0.80;;;28.60;98.30;;;;;;5057819;28;20044;-66
2022/08/24 13:40:53;;;;;;;1.45;0.80;;;;;;;;;;5062046;28;20068;-67
2022/08/24 13:43:23;;;;;;;7.38;2.65;;;;;;;;;;5061895;28;20151;-67
2022/08/24 13:46:09;;;;;;;7.70;4.72;;;;;;;;;;5060343;28;20557;-68
2022/08/24 13:48:57;;;;;;;7.07;4.57;;;28.80;99.90;;;;;;5050627;28;20499;-67
2022/08/24 13:51:29;;;;;;;10.63;6.05;;;;;;;;;;5066561;28;20036;-68
2022/08/24 13:54:21;;;;;;;6.70;5.57;;;28.70;99.90;;;;;;5056387;28;20048;-68
2022/08/24 13:57:14;;;;;;;8.07;4.93;;;28.80;99.90;;;;;;5046993;28;20063;-68
2022/08/24 14:00:11;;;;;;;8.07;5.50;;;28.70;99.90;;;;;;5051351;28;20049;-68
2022/08/24 14:02:56;;;;;;;9.00;5.72;;;;;;;;;;5045778;28;20053;-68
2022/08/24 14:05:37;;;;;;;9.30;5.82;;;28.60;99.90;;;;;;5064704;28;20502;-68
2022/08/24 14:08:45;;;;;;;10.07;5.75;;;28.60;99.90;;;;;;5062889;28;20037;-68
2022/08/24 14:11:16;;;;;;;9.02;6.68;;;;;;;;;;5068455;28;20119;-68
2022/08/24 14:14:02;;;;;;;9.95;6.72;;;;;;;;;;5047742;28;20387;-68
2022/08/24 14:19:49;;;;;;;10.68;6.63;;;28.40;99.90;;;;;;5049124;28;20157;-68
2022/08/24 14:22:28;;;;;;;7.75;5.63;;;28.30;99.90;;;;;;5052474;28;20493;-68
2022/08/24 14:25:22;;;;;;;7.30;5.18;;;28.20;99.90;;;;;;5063866;28;20123;-71
2022/08/24 14:27:53;;;;;;;7.70;6.07;;;28.20;99.90;;;;;;5053837;28;20400;-71
2022/08/24 14:30:22;;;;;;;7.38;5.32;;;28.10;99.90;;;;;;5064387;28;20060;-71